sensor_id;sensor_type;location;lat;lon;timestamp;P1;durP1;ratioP1;P2;durP2;ratioP2
35290;SDS011;21411;50.024;19.220;2023-12-29T00:02:08;29.00;;;23.40;;
35290;SDS011;21411;50.024;19.220;2023-12-29T00:04:35;28.80;;;22.80;;
35290;SDS011;21411;50.024;19.220;2023-12-29T00:07:02;29.30;;;22.20;;
35290;SDS011;21411;50.024;19.220;2023-12-29T00:09:29;33.70;;;23.00;;
35290;SDS011;21411;50.024;19.220;2023-12-29T00:11:55;29.70;;;22.40;;
35290;SDS011;21411;50.024;19.220;2023-12-29T00:14:22;32.10;;;23.90;;
35290;SDS011;21411;50.024;19.220;2023-12-29T00:16:48;27.20;;;21.60;;
35290;SDS011;21411;50.024;19.220;2023-12-29T00:19:15;29.20;;;21.10;;
35290;SDS011;21411;50.024;19.220;2023-12-29T00:21:42;27.00;;;21.90;;
35290;SDS011;21411;50.024;19.220;2023-12-29T00:24:08;26.70;;;22.40;;
35290;SDS011;21411;50.024;19.220;2023-12-29T00:26:35;29.30;;;22.10;;
35290;SDS011;21411;50.024;19.220;2023-12-29T00:29:01;28.10;;;21.60;;
35290;SDS011;21411;50.024;19.220;2023-12-29T00:31:28;30.00;;;22.80;;
35290;SDS011;21411;50.024;19.220;2023-12-29T00:33:55;28.60;;;23.40;;
35290;SDS011;21411;50.024;19.220;2023-12-29T00:36:21;27.70;;;23.10;;
35290;SDS011;21411;50.024;19.220;2023-12-29T00:38:48;30.70;;;22.90;;
35290;SDS011;21411;50.024;19.220;2023-12-29T00:41:14;30.10;;;22.20;;
35290;SDS011;21411;50.024;19.220;2023-12-29T00:43:41;29.40;;;23.70;;
35290;SDS011;21411;50.024;19.220;2023-12-29T00:46:08;25.10;;;21.50;;
35290;SDS011;21411;50.024;19.220;2023-12-29T00:48:35;29.10;;;21.90;;
35290;SDS011;21411;50.024;19.220;2023-12-29T00:51:01;29.70;;;22.50;;
35290;SDS011;21411;50.024;19.220;2023-12-29T00:53:29;27.60;;;21.90;;
35290;SDS011;21411;50.024;19.220;2023-12-29T00:55:59;26.60;;;22.00;;
35290;SDS011;21411;50.024;19.220;2023-12-29T00:58:26;29.10;;;22.10;;
35290;SDS011;21411;50.024;19.220;2023-12-29T01:00:53;29.20;;;22.60;;
35290;SDS011;21411;50.024;19.220;2023-12-29T01:03:19;29.00;;;22.40;;
35290;SDS011;21411;50.024;19.220;2023-12-29T01:05:47;31.00;;;24.40;;
35290;SDS011;21411;50.024;19.220;2023-12-29T01:08:13;33.70;;;23.90;;
35290;SDS011;21411;50.024;19.220;2023-12-29T01:10:40;35.70;;;26.10;;
35290;SDS011;21411;50.024;19.220;2023-12-29T01:13:07;35.50;;;27.10;;
35290;SDS011;21411;50.024;19.220;2023-12-29T01:15:33;37.90;;;27.20;;
35290;SDS011;21411;50.024;19.220;2023-12-29T01:18:00;40.40;;;29.90;;
35290;SDS011;21411;50.024;19.220;2023-12-29T01:20:26;41.50;;;30.60;;
35290;SDS011;21411;50.024;19.220;2023-12-29T01:22:53;37.80;;;29.60;;
35290;SDS011;21411;50.024;19.220;2023-12-29T01:25:20;38.60;;;29.70;;
35290;SDS011;21411;50.024;19.220;2023-12-29T01:27:46;43.00;;;30.40;;
35290;SDS011;21411;50.024;19.220;2023-12-29T01:30:13;42.70;;;32.10;;
35290;SDS011;21411;50.024;19.220;2023-12-29T01:32:39;39.90;;;29.20;;
35290;SDS011;21411;50.024;19.220;2023-12-29T01:35:06;37.40;;;29.00;;
35290;SDS011;21411;50.024;19.220;2023-12-29T01:37:33;39.60;;;29.40;;
35290;SDS011;21411;50.024;19.220;2023-12-29T01:39:59;38.40;;;28.80;;
35290;SDS011;21411;50.024;19.220;2023-12-29T01:42:26;34.30;;;26.40;;
35290;SDS011;21411;50.024;19.220;2023-12-29T01:44:53;33.40;;;25.00;;
35290;SDS011;21411;50.024;19.220;2023-12-29T01:47:20;30.10;;;21.60;;
35290;SDS011;21411;50.024;19.220;2023-12-29T01:49:49;26.10;;;21.30;;
35290;SDS011;21411;50.024;19.220;2023-12-29T01:52:16;24.60;;;18.40;;
35290;SDS011;21411;50.024;19.220;2023-12-29T01:54:44;23.10;;;18.60;;
35290;SDS011;21411;50.024;19.220;2023-12-29T01:57:12;20.40;;;16.90;;
35290;SDS011;21411;50.024;19.220;2023-12-29T01:59:40;20.90;;;17.10;;
35290;SDS011;21411;50.024;19.220;2023-12-29T02:02:07;20.40;;;15.80;;
35290;SDS011;21411;50.024;19.220;2023-12-29T02:04:34;21.00;;;15.90;;
35290;SDS011;21411;50.024;19.220;2023-12-29T02:07:03;20.30;;;15.30;;
35290;SDS011;21411;50.024;19.220;2023-12-29T02:09:29;18.10;;;14.90;;
35290;SDS011;21411;50.024;19.220;2023-12-29T02:11:56;18.00;;;14.50;;
35290;SDS011;21411;50.024;19.220;2023-12-29T02:14:23;18.60;;;14.80;;
35290;SDS011;21411;50.024;19.220;2023-12-29T02:16:56;20.60;;;15.40;;
35290;SDS011;21411;50.024;19.220;2023-12-29T02:22:10;18.00;;;13.70;;
35290;SDS011;21411;50.024;19.220;2023-12-29T02:24:37;14.80;;;12.40;;
35290;SDS011;21411;50.024;19.220;2023-12-29T02:30:02;17.60;;;13.60;;
35290;SDS011;21411;50.024;19.220;2023-12-29T02:32:42;16.20;;;12.50;;
35290;SDS011;21411;50.024;19.220;2023-12-29T02:35:12;17.20;;;13.30;;
35290;SDS011;21411;50.024;19.220;2023-12-29T02:40:08;14.90;;;12.40;;
35290;SDS011;21411;50.024;19.220;2023-12-29T02:42:35;16.00;;;13.40;;
35290;SDS011;21411;50.024;19.220;2023-12-29T02:45:02;17.00;;;12.80;;
35290;SDS011;21411;50.024;19.220;2023-12-29T02:47:29;15.10;;;12.00;;
35290;SDS011;21411;50.024;19.220;2023-12-29T02:49:56;15.20;;;11.80;;
35290;SDS011;21411;50.024;19.220;2023-12-29T02:52:23;13.80;;;11.00;;
35290;SDS011;21411;50.024;19.220;2023-12-29T02:54:49;12.60;;;10.80;;
35290;SDS011;21411;50.024;19.220;2023-12-29T02:57:16;13.40;;;9.80;;
35290;SDS011;21411;50.024;19.220;2023-12-29T02:59:42;12.10;;;9.30;;
35290;SDS011;21411;50.024;19.220;2023-12-29T03:02:09;12.60;;;10.50;;
35290;SDS011;21411;50.024;19.220;2023-12-29T03:04:35;12.70;;;10.70;;
35290;SDS011;21411;50.024;19.220;2023-12-29T03:07:02;12.30;;;10.50;;
35290;SDS011;21411;50.024;19.220;2023-12-29T03:09:28;13.00;;;11.60;;
35290;SDS011;21411;50.024;19.220;2023-12-29T03:11:55;15.30;;;11.90;;
35290;SDS011;21411;50.024;19.220;2023-12-29T03:14:22;15.20;;;12.50;;
35290;SDS011;21411;50.024;19.220;2023-12-29T03:16:48;13.30;;;11.50;;
35290;SDS011;21411;50.024;19.220;2023-12-29T03:19:15;11.50;;;9.80;;
35290;SDS011;21411;50.024;19.220;2023-12-29T03:21:41;11.80;;;10.20;;
35290;SDS011;21411;50.024;19.220;2023-12-29T03:24:08;12.70;;;11.30;;
35290;SDS011;21411;50.024;19.220;2023-12-29T03:26:34;12.60;;;9.50;;
35290;SDS011;21411;50.024;19.220;2023-12-29T03:29:01;14.40;;;10.40;;
35290;SDS011;21411;50.024;19.220;2023-12-29T03:31:27;9.30;;;7.30;;
35290;SDS011;21411;50.024;19.220;2023-12-29T03:33:54;10.10;;;7.00;;
35290;SDS011;21411;50.024;19.220;2023-12-29T03:36:21;8.30;;;6.60;;
35290;SDS011;21411;50.024;19.220;2023-12-29T03:38:47;11.50;;;7.00;;
35290;SDS011;21411;50.024;19.220;2023-12-29T03:41:14;10.20;;;7.40;;
35290;SDS011;21411;50.024;19.220;2023-12-29T03:43:40;10.80;;;7.70;;
35290;SDS011;21411;50.024;19.220;2023-12-29T03:48:43;10.70;;;7.90;;
35290;SDS011;21411;50.024;19.220;2023-12-29T03:51:10;11.60;;;8.20;;
35290;SDS011;21411;50.024;19.220;2023-12-29T03:53:36;12.00;;;8.30;;
35290;SDS011;21411;50.024;19.220;2023-12-29T03:56:07;11.70;;;8.20;;
35290;SDS011;21411;50.024;19.220;2023-12-29T03:58:34;14.30;;;9.40;;
35290;SDS011;21411;50.024;19.220;2023-12-29T04:01:01;13.90;;;8.30;;
35290;SDS011;21411;50.024;19.220;2023-12-29T04:03:28;13.20;;;7.80;;
35290;SDS011;21411;50.024;19.220;2023-12-29T04:05:55;11.50;;;7.30;;
35290;SDS011;21411;50.024;19.220;2023-12-29T04:08:21;10.40;;;6.90;;
35290;SDS011;21411;50.024;19.220;2023-12-29T04:10:48;8.50;;;6.40;;
35290;SDS011;21411;50.024;19.220;2023-12-29T04:13:14;8.20;;;6.10;;
35290;SDS011;21411;50.024;19.220;2023-12-29T04:15:41;8.00;;;7.20;;
35290;SDS011;21411;50.024;19.220;2023-12-29T04:18:07;9.00;;;8.10;;
35290;SDS011;21411;50.024;19.220;2023-12-29T04:20:34;11.30;;;10.20;;
35290;SDS011;21411;50.024;19.220;2023-12-29T04:23:00;9.30;;;8.40;;
35290;SDS011;21411;50.024;19.220;2023-12-29T04:25:27;8.20;;;6.30;;
35290;SDS011;21411;50.024;19.220;2023-12-29T04:27:53;6.40;;;5.80;;
35290;SDS011;21411;50.024;19.220;2023-12-29T04:30:20;7.10;;;6.30;;
35290;SDS011;21411;50.024;19.220;2023-12-29T04:32:46;10.20;;;6.40;;
35290;SDS011;21411;50.024;19.220;2023-12-29T04:35:13;9.30;;;7.70;;
35290;SDS011;21411;50.024;19.220;2023-12-29T04:37:43;9.30;;;7.80;;
35290;SDS011;21411;50.024;19.220;2023-12-29T04:42:38;9.30;;;6.90;;
35290;SDS011;21411;50.024;19.220;2023-12-29T04:45:05;10.40;;;7.20;;
35290;SDS011;21411;50.024;19.220;2023-12-29T04:47:31;11.10;;;6.90;;
35290;SDS011;21411;50.024;19.220;2023-12-29T04:49:58;8.30;;;6.70;;
35290;SDS011;21411;50.024;19.220;2023-12-29T04:52:25;8.10;;;6.50;;
35290;SDS011;21411;50.024;19.220;2023-12-29T04:54:51;7.00;;;5.90;;
35290;SDS011;21411;50.024;19.220;2023-12-29T04:57:18;10.20;;;6.40;;
35290;SDS011;21411;50.024;19.220;2023-12-29T04:59:45;10.80;;;6.70;;
35290;SDS011;21411;50.024;19.220;2023-12-29T05:02:11;12.10;;;8.20;;
35290;SDS011;21411;50.024;19.220;2023-12-29T05:04:38;9.00;;;7.80;;
35290;SDS011;21411;50.024;19.220;2023-12-29T05:07:05;13.40;;;8.50;;
35290;SDS011;21411;50.024;19.220;2023-12-29T05:09:31;10.50;;;7.70;;
35290;SDS011;21411;50.024;19.220;2023-12-29T05:11:58;7.90;;;5.80;;
35290;SDS011;21411;50.024;19.220;2023-12-29T05:14:25;9.10;;;6.60;;
35290;SDS011;21411;50.024;19.220;2023-12-29T05:16:51;7.60;;;6.10;;
35290;SDS011;21411;50.024;19.220;2023-12-29T05:19:18;9.10;;;7.50;;
35290;SDS011;21411;50.024;19.220;2023-12-29T05:21:44;9.40;;;7.00;;
35290;SDS011;21411;50.024;19.220;2023-12-29T05:24:11;8.40;;;6.70;;
35290;SDS011;21411;50.024;19.220;2023-12-29T05:26:37;8.50;;;7.40;;
35290;SDS011;21411;50.024;19.220;2023-12-29T05:29:04;8.70;;;7.00;;
35290;SDS011;21411;50.024;19.220;2023-12-29T05:31:30;8.30;;;6.30;;
35290;SDS011;21411;50.024;19.220;2023-12-29T05:33:57;9.70;;;8.80;;
35290;SDS011;21411;50.024;19.220;2023-12-29T05:36:23;10.00;;;8.80;;
35290;SDS011;21411;50.024;19.220;2023-12-29T05:38:50;9.00;;;7.70;;
35290;SDS011;21411;50.024;19.220;2023-12-29T05:41:17;8.30;;;7.40;;
35290;SDS011;21411;50.024;19.220;2023-12-29T05:43:45;7.80;;;6.50;;
35290;SDS011;21411;50.024;19.220;2023-12-29T05:46:12;7.20;;;6.50;;
35290;SDS011;21411;50.024;19.220;2023-12-29T05:48:39;7.10;;;5.60;;
35290;SDS011;21411;50.024;19.220;2023-12-29T05:51:07;5.70;;;5.00;;
35290;SDS011;21411;50.024;19.220;2023-12-29T05:53:35;5.60;;;4.50;;
35290;SDS011;21411;50.024;19.220;2023-12-29T05:56:02;5.40;;;4.30;;
35290;SDS011;21411;50.024;19.220;2023-12-29T05:58:29;4.50;;;4.10;;
35290;SDS011;21411;50.024;19.220;2023-12-29T06:00:56;5.10;;;4.40;;
35290;SDS011;21411;50.024;19.220;2023-12-29T06:03:22;7.80;;;4.50;;
35290;SDS011;21411;50.024;19.220;2023-12-29T06:05:49;6.50;;;4.50;;
35290;SDS011;21411;50.024;19.220;2023-12-29T06:08:16;6.20;;;4.70;;
35290;SDS011;21411;50.024;19.220;2023-12-29T06:10:42;5.00;;;4.50;;
35290;SDS011;21411;50.024;19.220;2023-12-29T06:13:09;5.50;;;4.70;;
35290;SDS011;21411;50.024;19.220;2023-12-29T06:15:35;7.30;;;4.90;;
35290;SDS011;21411;50.024;19.220;2023-12-29T06:18:02;6.20;;;4.20;;
35290;SDS011;21411;50.024;19.220;2023-12-29T06:20:29;5.30;;;4.00;;
35290;SDS011;21411;50.024;19.220;2023-12-29T06:22:56;5.00;;;3.70;;
35290;SDS011;21411;50.024;19.220;2023-12-29T06:25:22;5.00;;;4.00;;
35290;SDS011;21411;50.024;19.220;2023-12-29T06:27:49;4.20;;;3.70;;
35290;SDS011;21411;50.024;19.220;2023-12-29T06:30:16;4.90;;;4.20;;
35290;SDS011;21411;50.024;19.220;2023-12-29T06:32:42;5.60;;;4.40;;
35290;SDS011;21411;50.024;19.220;2023-12-29T06:35:09;6.30;;;4.90;;
35290;SDS011;21411;50.024;19.220;2023-12-29T06:37:40;5.70;;;4.60;;
35290;SDS011;21411;50.024;19.220;2023-12-29T06:40:07;6.00;;;4.40;;
35290;SDS011;21411;50.024;19.220;2023-12-29T06:42:34;6.10;;;4.90;;
35290;SDS011;21411;50.024;19.220;2023-12-29T06:45:01;8.40;;;5.00;;
35290;SDS011;21411;50.024;19.220;2023-12-29T06:47:27;5.20;;;4.20;;
35290;SDS011;21411;50.024;19.220;2023-12-29T06:49:54;8.80;;;5.80;;
35290;SDS011;21411;50.024;19.220;2023-12-29T06:52:21;6.40;;;4.70;;
35290;SDS011;21411;50.024;19.220;2023-12-29T06:54:47;6.50;;;4.70;;
35290;SDS011;21411;50.024;19.220;2023-12-29T06:57:14;5.10;;;4.50;;
35290;SDS011;21411;50.024;19.220;2023-12-29T06:59:41;6.10;;;5.10;;
35290;SDS011;21411;50.024;19.220;2023-12-29T07:02:08;7.50;;;5.20;;
35290;SDS011;21411;50.024;19.220;2023-12-29T07:04:34;6.00;;;4.70;;
35290;SDS011;21411;50.024;19.220;2023-12-29T07:07:01;6.80;;;5.20;;
35290;SDS011;21411;50.024;19.220;2023-12-29T07:09:28;6.10;;;4.50;;
35290;SDS011;21411;50.024;19.220;2023-12-29T07:11:55;8.70;;;5.00;;
35290;SDS011;21411;50.024;19.220;2023-12-29T07:14:21;5.90;;;4.80;;
35290;SDS011;21411;50.024;19.220;2023-12-29T07:16:48;7.20;;;5.20;;
35290;SDS011;21411;50.024;19.220;2023-12-29T07:19:14;6.70;;;4.90;;
35290;SDS011;21411;50.024;19.220;2023-12-29T07:21:41;7.30;;;5.10;;
35290;SDS011;21411;50.024;19.220;2023-12-29T07:24:08;5.60;;;4.50;;
35290;SDS011;21411;50.024;19.220;2023-12-29T07:26:35;7.20;;;4.10;;
35290;SDS011;21411;50.024;19.220;2023-12-29T07:29:01;5.10;;;3.70;;
35290;SDS011;21411;50.024;19.220;2023-12-29T07:31:28;4.70;;;3.40;;
35290;SDS011;21411;50.024;19.220;2023-12-29T07:33:54;3.70;;;3.30;;
35290;SDS011;21411;50.024;19.220;2023-12-29T07:36:21;3.60;;;2.90;;
35290;SDS011;21411;50.024;19.220;2023-12-29T07:38:48;3.50;;;3.00;;
35290;SDS011;21411;50.024;19.220;2023-12-29T07:41:14;4.00;;;2.90;;
35290;SDS011;21411;50.024;19.220;2023-12-29T07:43:41;3.80;;;2.90;;
35290;SDS011;21411;50.024;19.220;2023-12-29T07:46:08;3.80;;;2.70;;
35290;SDS011;21411;50.024;19.220;2023-12-29T07:48:35;5.00;;;2.90;;
35290;SDS011;21411;50.024;19.220;2023-12-29T07:51:04;4.60;;;3.40;;
35290;SDS011;21411;50.024;19.220;2023-12-29T07:55:58;5.90;;;4.50;;
35290;SDS011;21411;50.024;19.220;2023-12-29T07:58:24;5.90;;;4.00;;
35290;SDS011;21411;50.024;19.220;2023-12-29T08:00:51;6.20;;;4.20;;
35290;SDS011;21411;50.024;19.220;2023-12-29T08:03:17;4.80;;;3.80;;
35290;SDS011;21411;50.024;19.220;2023-12-29T08:05:44;6.00;;;3.70;;
35290;SDS011;21411;50.024;19.220;2023-12-29T08:08:12;4.30;;;3.50;;
35290;SDS011;21411;50.024;19.220;2023-12-29T08:10:38;4.70;;;3.50;;
35290;SDS011;21411;50.024;19.220;2023-12-29T08:13:05;5.00;;;3.60;;
35290;SDS011;21411;50.024;19.220;2023-12-29T08:15:35;3.80;;;3.00;;
35290;SDS011;21411;50.024;19.220;2023-12-29T08:18:02;5.90;;;3.10;;
35290;SDS011;21411;50.024;19.220;2023-12-29T08:20:28;3.40;;;2.70;;
35290;SDS011;21411;50.024;19.220;2023-12-29T08:22:55;4.10;;;3.00;;
35290;SDS011;21411;50.024;19.220;2023-12-29T08:25:23;5.60;;;3.80;;
35290;SDS011;21411;50.024;19.220;2023-12-29T08:27:49;3.90;;;2.90;;
35290;SDS011;21411;50.024;19.220;2023-12-29T08:30:16;5.00;;;3.30;;
35290;SDS011;21411;50.024;19.220;2023-12-29T08:32:43;4.40;;;3.70;;
35290;SDS011;21411;50.024;19.220;2023-12-29T08:35:11;5.50;;;3.60;;
35290;SDS011;21411;50.024;19.220;2023-12-29T08:37:37;5.10;;;3.30;;
35290;SDS011;21411;50.024;19.220;2023-12-29T08:40:04;4.90;;;3.20;;
35290;SDS011;21411;50.024;19.220;2023-12-29T08:42:33;3.80;;;3.00;;
35290;SDS011;21411;50.024;19.220;2023-12-29T08:44:59;3.50;;;2.50;;
35290;SDS011;21411;50.024;19.220;2023-12-29T08:47:26;4.10;;;2.10;;
35290;SDS011;21411;50.024;19.220;2023-12-29T08:49:53;3.20;;;1.60;;
35290;SDS011;21411;50.024;19.220;2023-12-29T08:52:20;2.20;;;1.90;;
35290;SDS011;21411;50.024;19.220;2023-12-29T08:54:47;3.30;;;2.30;;
35290;SDS011;21411;50.024;19.220;2023-12-29T08:57:14;3.40;;;2.20;;
35290;SDS011;21411;50.024;19.220;2023-12-29T08:59:40;2.60;;;2.40;;
35290;SDS011;21411;50.024;19.220;2023-12-29T09:02:07;2.50;;;2.20;;
35290;SDS011;21411;50.024;19.220;2023-12-29T09:04:33;2.20;;;1.80;;
35290;SDS011;21411;50.024;19.220;2023-12-29T09:07:00;2.60;;;1.90;;
35290;SDS011;21411;50.024;19.220;2023-12-29T09:09:26;3.40;;;2.20;;
35290;SDS011;21411;50.024;19.220;2023-12-29T09:11:53;2.60;;;1.70;;
35290;SDS011;21411;50.024;19.220;2023-12-29T09:14:20;3.20;;;1.90;;
35290;SDS011;21411;50.024;19.220;2023-12-29T09:16:46;3.10;;;2.00;;
35290;SDS011;21411;50.024;19.220;2023-12-29T09:19:13;2.60;;;1.90;;
35290;SDS011;21411;50.024;19.220;2023-12-29T09:21:39;2.00;;;1.80;;
35290;SDS011;21411;50.024;19.220;2023-12-29T09:24:06;2.50;;;2.00;;
35290;SDS011;21411;50.024;19.220;2023-12-29T09:26:32;1.70;;;1.60;;
35290;SDS011;21411;50.024;19.220;2023-12-29T09:28:59;2.80;;;2.10;;
35290;SDS011;21411;50.024;19.220;2023-12-29T09:31:26;2.20;;;2.00;;
35290;SDS011;21411;50.024;19.220;2023-12-29T09:33:53;2.60;;;2.00;;
35290;SDS011;21411;50.024;19.220;2023-12-29T09:36:19;2.10;;;1.70;;
35290;SDS011;21411;50.024;19.220;2023-12-29T09:38:46;2.70;;;1.90;;
35290;SDS011;21411;50.024;19.220;2023-12-29T09:41:14;2.00;;;1.70;;
35290;SDS011;21411;50.024;19.220;2023-12-29T09:43:42;2.10;;;1.90;;
35290;SDS011;21411;50.024;19.220;2023-12-29T09:46:12;2.30;;;2.10;;
35290;SDS011;21411;50.024;19.220;2023-12-29T09:48:41;2.20;;;1.60;;
35290;SDS011;21411;50.024;19.220;2023-12-29T09:51:12;2.50;;;2.00;;
35290;SDS011;21411;50.024;19.220;2023-12-29T09:53:40;2.80;;;2.10;;
35290;SDS011;21411;50.024;19.220;2023-12-29T09:56:07;2.50;;;2.20;;
35290;SDS011;21411;50.024;19.220;2023-12-29T09:58:35;2.80;;;2.00;;
35290;SDS011;21411;50.024;19.220;2023-12-29T10:01:04;2.50;;;2.20;;
35290;SDS011;21411;50.024;19.220;2023-12-29T10:03:32;4.00;;;2.50;;
35290;SDS011;21411;50.024;19.220;2023-12-29T10:06:00;2.40;;;2.20;;
35290;SDS011;21411;50.024;19.220;2023-12-29T10:08:29;1.80;;;1.70;;
35290;SDS011;21411;50.024;19.220;2023-12-29T10:11:00;2.60;;;2.20;;
35290;SDS011;21411;50.024;19.220;2023-12-29T10:13:28;3.00;;;2.20;;
35290;SDS011;21411;50.024;19.220;2023-12-29T10:15:59;2.30;;;1.80;;
35290;SDS011;21411;50.024;19.220;2023-12-29T10:18:50;2.30;;;1.90;;
35290;SDS011;21411;50.024;19.220;2023-12-29T10:21:31;1.70;;;1.60;;
35290;SDS011;21411;50.024;19.220;2023-12-29T10:24:05;2.50;;;1.70;;
35290;SDS011;21411;50.024;19.220;2023-12-29T10:26:39;3.30;;;1.70;;
35290;SDS011;21411;50.024;19.220;2023-12-29T10:29:07;2.90;;;1.70;;
35290;SDS011;21411;50.024;19.220;2023-12-29T10:31:33;2.30;;;2.00;;
35290;SDS011;21411;50.024;19.220;2023-12-29T10:36:55;1.90;;;1.60;;
35290;SDS011;21411;50.024;19.220;2023-12-29T10:39:23;2.10;;;1.90;;
35290;SDS011;21411;50.024;19.220;2023-12-29T10:42:06;1.70;;;1.50;;
35290;SDS011;21411;50.024;19.220;2023-12-29T10:44:35;2.80;;;2.10;;
35290;SDS011;21411;50.024;19.220;2023-12-29T10:47:09;1.80;;;1.50;;
35290;SDS011;21411;50.024;19.220;2023-12-29T10:49:37;2.30;;;1.70;;
35290;SDS011;21411;50.024;19.220;2023-12-29T10:52:14;2.10;;;1.90;;
35290;SDS011;21411;50.024;19.220;2023-12-29T10:54:44;2.00;;;1.80;;
35290;SDS011;21411;50.024;19.220;2023-12-29T10:57:11;2.70;;;2.10;;
35290;SDS011;21411;50.024;19.220;2023-12-29T10:59:39;3.40;;;2.00;;
35290;SDS011;21411;50.024;19.220;2023-12-29T11:02:06;2.30;;;2.00;;
35290;SDS011;21411;50.024;19.220;2023-12-29T11:04:34;1.90;;;1.60;;
35290;SDS011;21411;50.024;19.220;2023-12-29T11:07:01;1.90;;;1.60;;
35290;SDS011;21411;50.024;19.220;2023-12-29T11:09:28;2.30;;;2.00;;
35290;SDS011;21411;50.024;19.220;2023-12-29T11:11:57;2.00;;;1.80;;
35290;SDS011;21411;50.024;19.220;2023-12-29T11:14:26;2.90;;;2.00;;
35290;SDS011;21411;50.024;19.220;2023-12-29T11:16:56;3.20;;;2.00;;
35290;SDS011;21411;50.024;19.220;2023-12-29T11:19:24;2.50;;;2.20;;
35290;SDS011;21411;50.024;19.220;2023-12-29T11:21:51;2.80;;;2.10;;
35290;SDS011;21411;50.024;19.220;2023-12-29T11:24:22;4.90;;;2.30;;
35290;SDS011;21411;50.024;19.220;2023-12-29T11:26:49;3.80;;;2.50;;
35290;SDS011;21411;50.024;19.220;2023-12-29T11:29:16;2.90;;;2.60;;
35290;SDS011;21411;50.024;19.220;2023-12-29T11:31:43;2.20;;;2.00;;
35290;SDS011;21411;50.024;19.220;2023-12-29T11:34:22;2.30;;;2.10;;
35290;SDS011;21411;50.024;19.220;2023-12-29T11:36:55;2.70;;;2.10;;
35290;SDS011;21411;50.024;19.220;2023-12-29T11:42:33;3.20;;;2.90;;
35290;SDS011;21411;50.024;19.220;2023-12-29T11:45:26;2.60;;;2.10;;
35290;SDS011;21411;50.024;19.220;2023-12-29T11:47:55;3.00;;;2.20;;
35290;SDS011;21411;50.024;19.220;2023-12-29T11:50:27;2.40;;;2.20;;
35290;SDS011;21411;50.024;19.220;2023-12-29T11:52:58;3.90;;;2.60;;
35290;SDS011;21411;50.024;19.220;2023-12-29T11:55:29;3.10;;;2.30;;
35290;SDS011;21411;50.024;19.220;2023-12-29T11:57:57;2.80;;;2.50;;
35290;SDS011;21411;50.024;19.220;2023-12-29T12:00:40;3.10;;;2.80;;
35290;SDS011;21411;50.024;19.220;2023-12-29T12:03:14;6.00;;;2.90;;
35290;SDS011;21411;50.024;19.220;2023-12-29T12:05:52;2.90;;;2.40;;
35290;SDS011;21411;50.024;19.220;2023-12-29T12:10:57;2.50;;;2.10;;
35290;SDS011;21411;50.024;19.220;2023-12-29T12:13:45;4.20;;;2.60;;
35290;SDS011;21411;50.024;19.220;2023-12-29T12:19:17;3.40;;;2.60;;
35290;SDS011;21411;50.024;19.220;2023-12-29T12:21:46;2.50;;;2.30;;
35290;SDS011;21411;50.024;19.220;2023-12-29T12:24:19;2.80;;;2.20;;
35290;SDS011;21411;50.024;19.220;2023-12-29T12:26:46;2.50;;;2.30;;
35290;SDS011;21411;50.024;19.220;2023-12-29T12:29:13;2.70;;;2.20;;
35290;SDS011;21411;50.024;19.220;2023-12-29T12:31:51;3.70;;;3.00;;
35290;SDS011;21411;50.024;19.220;2023-12-29T12:34:18;3.30;;;2.60;;
35290;SDS011;21411;50.024;19.220;2023-12-29T12:36:48;3.10;;;2.80;;
35290;SDS011;21411;50.024;19.220;2023-12-29T12:39:17;3.20;;;2.70;;
35290;SDS011;21411;50.024;19.220;2023-12-29T12:41:43;2.70;;;2.20;;
35290;SDS011;21411;50.024;19.220;2023-12-29T12:44:11;3.60;;;3.20;;
35290;SDS011;21411;50.024;19.220;2023-12-29T12:46:51;3.00;;;2.70;;
35290;SDS011;21411;50.024;19.220;2023-12-29T12:49:23;4.10;;;2.80;;
35290;SDS011;21411;50.024;19.220;2023-12-29T12:51:50;2.90;;;2.60;;
35290;SDS011;21411;50.024;19.220;2023-12-29T12:54:17;5.00;;;2.90;;
35290;SDS011;21411;50.024;19.220;2023-12-29T12:56:46;3.10;;;2.80;;
35290;SDS011;21411;50.024;19.220;2023-12-29T12:59:14;4.20;;;3.30;;
35290;SDS011;21411;50.024;19.220;2023-12-29T13:01:42;3.70;;;3.20;;
35290;SDS011;21411;50.024;19.220;2023-12-29T13:04:09;4.20;;;3.10;;
35290;SDS011;21411;50.024;19.220;2023-12-29T13:06:40;4.90;;;3.20;;
35290;SDS011;21411;50.024;19.220;2023-12-29T13:09:09;3.00;;;2.70;;
35290;SDS011;21411;50.024;19.220;2023-12-29T13:11:43;3.40;;;3.10;;
35290;SDS011;21411;50.024;19.220;2023-12-29T13:14:19;5.00;;;3.30;;
35290;SDS011;21411;50.024;19.220;2023-12-29T13:16:48;3.20;;;2.70;;
35290;SDS011;21411;50.024;19.220;2023-12-29T13:21:47;4.50;;;3.40;;
35290;SDS011;21411;50.024;19.220;2023-12-29T13:24:25;5.90;;;4.50;;
35290;SDS011;21411;50.024;19.220;2023-12-29T13:26:55;4.70;;;3.50;;
35290;SDS011;21411;50.024;19.220;2023-12-29T13:29:28;3.90;;;2.80;;
35290;SDS011;21411;50.024;19.220;2023-12-29T13:31:56;3.00;;;2.60;;
35290;SDS011;21411;50.024;19.220;2023-12-29T13:37:12;4.60;;;3.40;;
35290;SDS011;21411;50.024;19.220;2023-12-29T13:39:57;3.50;;;2.90;;
35290;SDS011;21411;50.024;19.220;2023-12-29T13:42:34;5.20;;;3.10;;
35290;SDS011;21411;50.024;19.220;2023-12-29T13:45:04;4.00;;;3.20;;
35290;SDS011;21411;50.024;19.220;2023-12-29T13:47:34;3.50;;;2.90;;
35290;SDS011;21411;50.024;19.220;2023-12-29T13:50:03;3.70;;;2.80;;
35290;SDS011;21411;50.024;19.220;2023-12-29T13:52:31;4.40;;;3.10;;
35290;SDS011;21411;50.024;19.220;2023-12-29T13:54:58;2.80;;;2.50;;
35290;SDS011;21411;50.024;19.220;2023-12-29T13:57:31;4.70;;;3.20;;
35290;SDS011;21411;50.024;19.220;2023-12-29T14:00:17;5.60;;;3.30;;
35290;SDS011;21411;50.024;19.220;2023-12-29T14:05:31;3.10;;;2.80;;
35290;SDS011;21411;50.024;19.220;2023-12-29T14:07:59;3.40;;;2.80;;
35290;SDS011;21411;50.024;19.220;2023-12-29T14:10:29;3.60;;;3.10;;
35290;SDS011;21411;50.024;19.220;2023-12-29T14:13:08;3.30;;;2.70;;
35290;SDS011;21411;50.024;19.220;2023-12-29T14:15:36;4.40;;;3.00;;
35290;SDS011;21411;50.024;19.220;2023-12-29T14:20:39;4.10;;;2.50;;
35290;SDS011;21411;50.024;19.220;2023-12-29T14:23:07;3.50;;;2.90;;
35290;SDS011;21411;50.024;19.220;2023-12-29T14:25:34;4.10;;;3.00;;
35290;SDS011;21411;50.024;19.220;2023-12-29T14:28:03;3.30;;;2.80;;
35290;SDS011;21411;50.024;19.220;2023-12-29T14:30:39;4.80;;;3.10;;
35290;SDS011;21411;50.024;19.220;2023-12-29T14:33:06;3.30;;;3.00;;
35290;SDS011;21411;50.024;19.220;2023-12-29T14:35:34;5.10;;;3.50;;
35290;SDS011;21411;50.024;19.220;2023-12-29T14:38:00;8.20;;;5.30;;
35290;SDS011;21411;50.024;19.220;2023-12-29T14:40:27;5.20;;;3.90;;
35290;SDS011;21411;50.024;19.220;2023-12-29T14:42:54;5.30;;;4.00;;
35290;SDS011;21411;50.024;19.220;2023-12-29T14:45:21;5.20;;;3.90;;
35290;SDS011;21411;50.024;19.220;2023-12-29T14:47:48;5.30;;;3.40;;
35290;SDS011;21411;50.024;19.220;2023-12-29T14:50:15;5.20;;;4.20;;
35290;SDS011;21411;50.024;19.220;2023-12-29T14:52:42;4.90;;;4.00;;
35290;SDS011;21411;50.024;19.220;2023-12-29T14:55:09;5.60;;;4.30;;
35290;SDS011;21411;50.024;19.220;2023-12-29T14:57:35;6.00;;;4.30;;
35290;SDS011;21411;50.024;19.220;2023-12-29T15:00:02;7.60;;;5.20;;
35290;SDS011;21411;50.024;19.220;2023-12-29T15:02:30;6.70;;;5.00;;
35290;SDS011;21411;50.024;19.220;2023-12-29T15:04:57;5.20;;;4.20;;
35290;SDS011;21411;50.024;19.220;2023-12-29T15:07:24;6.20;;;4.60;;
35290;SDS011;21411;50.024;19.220;2023-12-29T15:09:56;5.90;;;4.60;;
35290;SDS011;21411;50.024;19.220;2023-12-29T15:12:23;6.80;;;4.70;;